sensor_id;sensor_type;location;lat;lon;timestamp;temperature;humidity
64817;DHT22;53289;45.602;11.904;2023-02-08T00:02:21;-3.80;71.00
64817;DHT22;53289;45.602;11.904;2023-02-08T00:04:47;-3.80;70.00
64817;DHT22;53289;45.602;11.904;2023-02-08T00:07:13;-3.80;69.90
64817;DHT22;53289;45.602;11.904;2023-02-08T00:09:39;-3.80;69.60
64817;DHT22;53289;45.602;11.904;2023-02-08T00:12:05;-3.80;69.50
64817;DHT22;53289;45.602;11.904;2023-02-08T00:14:31;-3.80;69.10
64817;DHT22;53289;45.602;11.904;2023-02-08T00:16:57;-3.80;69.30
64817;DHT22;53289;45.602;11.904;2023-02-08T00:19:23;-3.90;69.20
64817;DHT22;53289;45.602;11.904;2023-02-08T00:21:49;-3.90;69.10
64817;DHT22;53289;45.602;11.904;2023-02-08T00:24:15;-4.00;69.00
64817;DHT22;53289;45.602;11.904;2023-02-08T00:26:41;-4.00;68.80
64817;DHT22;53289;45.602;11.904;2023-02-08T00:29:06;-4.10;68.80
64817;DHT22;53289;45.602;11.904;2023-02-08T00:31:33;-4.10;68.90
64817;DHT22;53289;45.602;11.904;2023-02-08T00:33:59;-4.20;69.50
64817;DHT22;53289;45.602;11.904;2023-02-08T00:36:24;-4.20;69.70
64817;DHT22;53289;45.602;11.904;2023-02-08T00:38:50;-4.20;69.70
64817;DHT22;53289;45.602;11.904;2023-02-08T00:41:16;-4.20;69.20
64817;DHT22;53289;45.602;11.904;2023-02-08T00:43:42;-4.20;69.10
64817;DHT22;53289;45.602;11.904;2023-02-08T00:46:08;-4.20;69.00
64817;DHT22;53289;45.602;11.904;2023-02-08T00:48:34;-4.30;69.10
64817;DHT22;53289;45.602;11.904;2023-02-08T00:51:03;-4.30;69.20
64817;DHT22;53289;45.602;11.904;2023-02-08T00:53:30;-4.30;69.10
64817;DHT22;53289;45.602;11.904;2023-02-08T00:55:59;-4.30;69.70
64817;DHT22;53289;45.602;11.904;2023-02-08T00:58:25;-4.30;70.20
64817;DHT22;53289;45.602;11.904;2023-02-08T01:00:52;-4.30;70.80
64817;DHT22;53289;45.602;11.904;2023-02-08T01:03:19;-4.30;70.20
64817;DHT22;53289;45.602;11.904;2023-02-08T01:05:45;-4.30;69.70
64817;DHT22;53289;45.602;11.904;2023-02-08T01:08:11;-4.30;69.40
64817;DHT22;53289;45.602;11.904;2023-02-08T01:10:37;-4.30;68.80
64817;DHT22;53289;45.602;11.904;2023-02-08T01:13:03;-4.20;69.50
64817;DHT22;53289;45.602;11.904;2023-02-08T01:15:29;-4.10;70.30
64817;DHT22;53289;45.602;11.904;2023-02-08T01:17:56;-4.10;70.80
64817;DHT22;53289;45.602;11.904;2023-02-08T01:20:22;-4.10;71.00
64817;DHT22;53289;45.602;11.904;2023-02-08T01:22:49;-4.20;70.90
64817;DHT22;53289;45.602;11.904;2023-02-08T01:25:15;-4.20;72.10
64817;DHT22;53289;45.602;11.904;2023-02-08T01:27:42;-4.20;72.30
64817;DHT22;53289;45.602;11.904;2023-02-08T01:30:08;-4.20;72.00
64817;DHT22;53289;45.602;11.904;2023-02-08T01:32:34;-4.20;71.90
64817;DHT22;53289;45.602;11.904;2023-02-08T01:35:00;-4.10;71.10
64817;DHT22;53289;45.602;11.904;2023-02-08T01:37:26;-4.10;70.80
64817;DHT22;53289;45.602;11.904;2023-02-08T01:39:52;-4.10;70.70
64817;DHT22;53289;45.602;11.904;2023-02-08T01:42:18;-4.20;71.40
64817;DHT22;53289;45.602;11.904;2023-02-08T01:47:44;-4.20;69.90
64817;DHT22;53289;45.602;11.904;2023-02-08T01:50:13;-4.20;70.70
64817;DHT22;53289;45.602;11.904;2023-02-08T01:52:39;-4.10;70.10
64817;DHT22;53289;45.602;11.904;2023-02-08T01:55:15;-4.00;70.80
64817;DHT22;53289;45.602;11.904;2023-02-08T01:57:43;-4.00;70.20
64817;DHT22;53289;45.602;11.904;2023-02-08T02:00:17;-3.90;70.40
64817;DHT22;53289;45.602;11.904;2023-02-08T02:02:47;-3.80;70.90
64817;DHT22;53289;45.602;11.904;2023-02-08T02:05:21;-3.70;71.00
64817;DHT22;53289;45.602;11.904;2023-02-08T02:07:48;-3.70;70.30
64817;DHT22;53289;45.602;11.904;2023-02-08T02:10:29;-3.60;69.90
64817;DHT22;53289;45.602;11.904;2023-02-08T02:13:05;-3.60;68.90
64817;DHT22;53289;45.602;11.904;2023-02-08T02:15:32;-3.40;69.00
64817;DHT22;53289;45.602;11.904;2023-02-08T02:17:59;-3.20;69.70
64817;DHT22;53289;45.602;11.904;2023-02-08T02:20:50;-3.10;69.20
64817;DHT22;53289;45.602;11.904;2023-02-08T02:23:45;-3.10;68.30
64817;DHT22;53289;45.602;11.904;2023-02-08T02:34:35;-2.90;68.40
64817;DHT22;53289;45.602;11.904;2023-02-08T02:45:44;-2.80;66.70
64817;DHT22;53289;45.602;11.904;2023-02-08T02:51:26;-2.90;66.20
64817;DHT22;53289;45.602;11.904;2023-02-08T02:53:57;-3.00;66.10
64817;DHT22;53289;45.602;11.904;2023-02-08T02:56:28;-3.00;66.10
64817;DHT22;53289;45.602;11.904;2023-02-08T02:58:57;-3.10;66.40
64817;DHT22;53289;45.602;11.904;2023-02-08T03:01:24;-3.20;66.20
64817;DHT22;53289;45.602;11.904;2023-02-08T03:03:52;-3.20;66.30
64817;DHT22;53289;45.602;11.904;2023-02-08T03:11:37;-3.20;66.30
64817;DHT22;53289;45.602;11.904;2023-02-08T03:17:27;-3.20;66.30
64817;DHT22;53289;45.602;11.904;2023-02-08T03:22:57;-3.30;66.40
64817;DHT22;53289;45.602;11.904;2023-02-08T03:25:33;-3.40;66.50
64817;DHT22;53289;45.602;11.904;2023-02-08T03:28:18;-3.50;66.80
64817;DHT22;53289;45.602;11.904;2023-02-08T03:31:03;-3.50;66.80
64817;DHT22;53289;45.602;11.904;2023-02-08T03:33:50;-3.50;67.00
64817;DHT22;53289;45.602;11.904;2023-02-08T03:36:51;-3.50;66.90
64817;DHT22;53289;45.602;11.904;2023-02-08T03:39:20;-3.50;66.60
64817;DHT22;53289;45.602;11.904;2023-02-08T03:41:50;-3.50;67.30
64817;DHT22;53289;45.602;11.904;2023-02-08T03:44:41;-3.60;67.20
64817;DHT22;53289;45.602;11.904;2023-02-08T03:47:21;-3.70;67.60
64817;DHT22;53289;45.602;11.904;2023-02-08T03:49:50;-3.80;67.70
64817;DHT22;53289;45.602;11.904;2023-02-08T03:52:18;-3.90;67.80
64817;DHT22;53289;45.602;11.904;2023-02-08T03:54:49;-4.00;67.50
64817;DHT22;53289;45.602;11.904;2023-02-08T03:59:50;-4.10;67.80
64817;DHT22;53289;45.602;11.904;2023-02-08T04:02:20;-4.20;67.80
64817;DHT22;53289;45.602;11.904;2023-02-08T04:04:49;-4.20;67.70
64817;DHT22;53289;45.602;11.904;2023-02-08T04:07:17;-4.10;68.10
64817;DHT22;53289;45.602;11.904;2023-02-08T04:09:43;-4.00;68.30
64817;DHT22;53289;45.602;11.904;2023-02-08T04:12:10;-4.00;68.40
64817;DHT22;53289;45.602;11.904;2023-02-08T04:14:36;-3.90;68.00
64817;DHT22;53289;45.602;11.904;2023-02-08T04:17:02;-4.00;67.50
64817;DHT22;53289;45.602;11.904;2023-02-08T04:19:28;-4.00;67.40
64817;DHT22;53289;45.602;11.904;2023-02-08T04:21:54;-4.10;67.60
64817;DHT22;53289;45.602;11.904;2023-02-08T04:24:20;-4.10;67.80
64817;DHT22;53289;45.602;11.904;2023-02-08T04:26:46;-4.10;68.20
64817;DHT22;53289;45.602;11.904;2023-02-08T04:29:12;-4.00;68.40
64817;DHT22;53289;45.602;11.904;2023-02-08T04:31:38;-4.00;68.30
64817;DHT22;53289;45.602;11.904;2023-02-08T04:34:04;-4.00;67.30
64817;DHT22;53289;45.602;11.904;2023-02-08T04:36:30;-4.00;67.60
64817;DHT22;53289;45.602;11.904;2023-02-08T04:38:56;-4.00;67.30
64817;DHT22;53289;45.602;11.904;2023-02-08T04:41:22;-4.10;67.10
64817;DHT22;53289;45.602;11.904;2023-02-08T04:43:48;-4.10;67.40
64817;DHT22;53289;45.602;11.904;2023-02-08T04:46:13;-4.20;67.30
64817;DHT22;53289;45.602;11.904;2023-02-08T04:48:39;-4.20;67.50
64817;DHT22;53289;45.602;11.904;2023-02-08T04:51:05;-4.30;67.80
64817;DHT22;53289;45.602;11.904;2023-02-08T04:53:31;-4.30;68.00
64817;DHT22;53289;45.602;11.904;2023-02-08T04:55:57;-4.30;67.60
64817;DHT22;53289;45.602;11.904;2023-02-08T04:58:23;-4.30;67.40
64817;DHT22;53289;45.602;11.904;2023-02-08T05:00:49;-4.30;67.70
64817;DHT22;53289;45.602;11.904;2023-02-08T05:03:15;-4.40;67.60
64817;DHT22;53289;45.602;11.904;2023-02-08T05:05:41;-4.40;67.50
64817;DHT22;53289;45.602;11.904;2023-02-08T05:08:06;-4.40;67.80
64817;DHT22;53289;45.602;11.904;2023-02-08T05:10:32;-4.40;68.20
64817;DHT22;53289;45.602;11.904;2023-02-08T05:12:58;-4.50;68.30
64817;DHT22;53289;45.602;11.904;2023-02-08T05:15:25;-4.50;67.90
64817;DHT22;53289;45.602;11.904;2023-02-08T05:17:51;-4.50;67.90
64817;DHT22;53289;45.602;11.904;2023-02-08T05:20:16;-4.50;68.00
64817;DHT22;53289;45.602;11.904;2023-02-08T05:22:42;-4.50;68.00
64817;DHT22;53289;45.602;11.904;2023-02-08T05:25:08;-4.50;67.80
64817;DHT22;53289;45.602;11.904;2023-02-08T05:27:35;-4.50;68.20
64817;DHT22;53289;45.602;11.904;2023-02-08T05:30:01;-4.50;68.40
64817;DHT22;53289;45.602;11.904;2023-02-08T05:32:27;-4.50;68.30
64817;DHT22;53289;45.602;11.904;2023-02-08T05:34:53;-4.60;68.40
64817;DHT22;53289;45.602;11.904;2023-02-08T05:37:19;-4.50;68.60
64817;DHT22;53289;45.602;11.904;2023-02-08T05:39:45;-4.60;68.50
64817;DHT22;53289;45.602;11.904;2023-02-08T05:42:11;-4.60;68.50
64817;DHT22;53289;45.602;11.904;2023-02-08T05:44:37;-4.60;68.40
64817;DHT22;53289;45.602;11.904;2023-02-08T05:47:03;-4.60;68.40
64817;DHT22;53289;45.602;11.904;2023-02-08T05:49:29;-4.60;69.00
64817;DHT22;53289;45.602;11.904;2023-02-08T05:51:56;-4.50;69.20
64817;DHT22;53289;45.602;11.904;2023-02-08T05:54:21;-4.50;70.00
64817;DHT22;53289;45.602;11.904;2023-02-08T05:56:47;-4.40;69.30
64817;DHT22;53289;45.602;11.904;2023-02-08T05:59:13;-4.30;68.20
64817;DHT22;53289;45.602;11.904;2023-02-08T06:01:40;-4.30;67.90
64817;DHT22;53289;45.602;11.904;2023-02-08T06:04:05;-4.20;67.80
64817;DHT22;53289;45.602;11.904;2023-02-08T06:06:31;-4.20;68.40
64817;DHT22;53289;45.602;11.904;2023-02-08T06:08:57;-4.20;67.90
64817;DHT22;53289;45.602;11.904;2023-02-08T06:11:23;-4.30;68.80
64817;DHT22;53289;45.602;11.904;2023-02-08T06:13:49;-4.20;69.80
64817;DHT22;53289;45.602;11.904;2023-02-08T06:16:15;-4.30;70.10
64817;DHT22;53289;45.602;11.904;2023-02-08T06:18:41;-4.20;69.90
64817;DHT22;53289;45.602;11.904;2023-02-08T06:21:07;-4.20;68.90
64817;DHT22;53289;45.602;11.904;2023-02-08T06:23:32;-4.20;68.40
64817;DHT22;53289;45.602;11.904;2023-02-08T06:25:58;-4.10;67.80
64817;DHT22;53289;45.602;11.904;2023-02-08T06:28:25;-4.20;67.90
64817;DHT22;53289;45.602;11.904;2023-02-08T06:30:51;-4.20;67.90
64817;DHT22;53289;45.602;11.904;2023-02-08T06:33:17;-4.20;68.00
64817;DHT22;53289;45.602;11.904;2023-02-08T06:35:45;-4.20;68.50
64817;DHT22;53289;45.602;11.904;2023-02-08T06:38:11;-4.20;70.00
64817;DHT22;53289;45.602;11.904;2023-02-08T06:40:37;-4.20;69.80
64817;DHT22;53289;45.602;11.904;2023-02-08T06:43:03;-4.10;69.70
64817;DHT22;53289;45.602;11.904;2023-02-08T06:45:29;-4.10;68.60
64817;DHT22;53289;45.602;11.904;2023-02-08T06:47:55;-4.10;67.90
64817;DHT22;53289;45.602;11.904;2023-02-08T06:50:21;-4.00;68.10
64817;DHT22;53289;45.602;11.904;2023-02-08T06:52:46;-4.00;68.20
64817;DHT22;53289;45.602;11.904;2023-02-08T06:55:13;-3.90;69.00
64817;DHT22;53289;45.602;11.904;2023-02-08T06:57:39;-3.80;68.80
64817;DHT22;53289;45.602;11.904;2023-02-08T07:00:08;-3.70;69.10
64817;DHT22;53289;45.602;11.904;2023-02-08T07:02:34;-3.60;69.20
64817;DHT22;53289;45.602;11.904;2023-02-08T07:05:00;-3.40;69.40
64817;DHT22;53289;45.602;11.904;2023-02-08T07:07:27;-3.30;69.40
64817;DHT22;53289;45.602;11.904;2023-02-08T07:09:52;-3.10;69.60
64817;DHT22;53289;45.602;11.904;2023-02-08T07:12:18;-2.90;69.80
64817;DHT22;53289;45.602;11.904;2023-02-08T07:14:44;-2.70;69.60
64817;DHT22;53289;45.602;11.904;2023-02-08T07:17:11;-2.50;69.30
64817;DHT22;53289;45.602;11.904;2023-02-08T07:19:37;-2.30;69.40
64817;DHT22;53289;45.602;11.904;2023-02-08T07:22:03;-2.10;69.10
64817;DHT22;53289;45.602;11.904;2023-02-08T07:24:39;-1.80;68.80
64817;DHT22;53289;45.602;11.904;2023-02-08T07:27:07;-1.60;67.90
64817;DHT22;53289;45.602;11.904;2023-02-08T07:29:33;-1.40;67.50
64817;DHT22;53289;45.602;11.904;2023-02-08T07:32:01;-1.10;67.00
64817;DHT22;53289;45.602;11.904;2023-02-08T07:34:32;-0.90;66.60
64817;DHT22;53289;45.602;11.904;2023-02-08T07:36:58;-0.60;65.70
64817;DHT22;53289;45.602;11.904;2023-02-08T07:39:24;-0.40;64.10
64817;DHT22;53289;45.602;11.904;2023-02-08T07:41:51;-0.20;64.90
64817;DHT22;53289;45.602;11.904;2023-02-08T07:44:17;0.00;63.60
64817;DHT22;53289;45.602;11.904;2023-02-08T07:46:43;0.10;63.60
64817;DHT22;53289;45.602;11.904;2023-02-08T07:49:09;0.30;63.80
64817;DHT22;53289;45.602;11.904;2023-02-08T07:51:35;0.40;63.10
64817;DHT22;53289;45.602;11.904;2023-02-08T07:54:01;0.50;62.40
64817;DHT22;53289;45.602;11.904;2023-02-08T07:56:27;0.50;62.20
64817;DHT22;53289;45.602;11.904;2023-02-08T07:58:54;0.50;62.40
64817;DHT22;53289;45.602;11.904;2023-02-08T08:01:20;0.50;61.30
64817;DHT22;53289;45.602;11.904;2023-02-08T08:03:46;0.60;62.30
64817;DHT22;53289;45.602;11.904;2023-02-08T08:06:12;0.70;59.90
64817;DHT22;53289;45.602;11.904;2023-02-08T08:08:38;0.70;60.80
64817;DHT22;53289;45.602;11.904;2023-02-08T08:11:05;0.80;61.10
64817;DHT22;53289;45.602;11.904;2023-02-08T08:13:31;0.80;61.80
64817;DHT22;53289;45.602;11.904;2023-02-08T08:15:57;0.90;62.00
64817;DHT22;53289;45.602;11.904;2023-02-08T08:18:23;1.00;62.00
64817;DHT22;53289;45.602;11.904;2023-02-08T08:20:49;1.00;60.90
64817;DHT22;53289;45.602;11.904;2023-02-08T08:23:15;1.00;60.80
64817;DHT22;53289;45.602;11.904;2023-02-08T08:25:41;0.90;61.00
64817;DHT22;53289;45.602;11.904;2023-02-08T08:28:07;0.90;61.20
64817;DHT22;53289;45.602;11.904;2023-02-08T08:30:33;0.90;61.00
64817;DHT22;53289;45.602;11.904;2023-02-08T08:32:59;0.90;61.00
64817;DHT22;53289;45.602;11.904;2023-02-08T08:35:25;1.00;60.60
64817;DHT22;53289;45.602;11.904;2023-02-08T08:37:51;1.10;59.90
64817;DHT22;53289;45.602;11.904;2023-02-08T08:40:17;1.20;60.80
64817;DHT22;53289;45.602;11.904;2023-02-08T08:42:43;1.40;59.60
64817;DHT22;53289;45.602;11.904;2023-02-08T08:45:09;1.50;60.00
64817;DHT22;53289;45.602;11.904;2023-02-08T08:47:35;1.60;59.70
64817;DHT22;53289;45.602;11.904;2023-02-08T08:50:01;1.70;58.00
64817;DHT22;53289;45.602;11.904;2023-02-08T08:52:27;1.80;59.10
64817;DHT22;53289;45.602;11.904;2023-02-08T08:54:53;1.90;58.90
64817;DHT22;53289;45.602;11.904;2023-02-08T08:57:19;2.00;59.60
64817;DHT22;53289;45.602;11.904;2023-02-08T08:59:45;2.00;57.40
64817;DHT22;53289;45.602;11.904;2023-02-08T09:02:12;2.10;58.40
64817;DHT22;53289;45.602;11.904;2023-02-08T09:04:38;2.30;57.90
64817;DHT22;53289;45.602;11.904;2023-02-08T09:07:08;2.30;56.30
64817;DHT22;53289;45.602;11.904;2023-02-08T09:09:35;2.50;57.20
64817;DHT22;53289;45.602;11.904;2023-02-08T09:12:02;2.60;57.20
64817;DHT22;53289;45.602;11.904;2023-02-08T09:14:28;2.80;55.60
64817;DHT22;53289;45.602;11.904;2023-02-08T09:16:54;2.90;56.40
64817;DHT22;53289;45.602;11.904;2023-02-08T09:19:20;3.00;55.70
64817;DHT22;53289;45.602;11.904;2023-02-08T09:21:46;3.20;54.40
64817;DHT22;53289;45.602;11.904;2023-02-08T09:24:12;3.30;54.50
64817;DHT22;53289;45.602;11.904;2023-02-08T09:26:38;3.40;53.90
64817;DHT22;53289;45.602;11.904;2023-02-08T09:29:05;3.40;54.00
64817;DHT22;53289;45.602;11.904;2023-02-08T09:31:33;3.50;52.40
64817;DHT22;53289;45.602;11.904;2023-02-08T09:34:01;3.60;53.40
64817;DHT22;53289;45.602;11.904;2023-02-08T09:36:32;3.60;52.40
64817;DHT22;53289;45.602;11.904;2023-02-08T09:39:03;3.80;52.80
64817;DHT22;53289;45.602;11.904;2023-02-08T09:47:29;4.10;53.00
64817;DHT22;53289;45.602;11.904;2023-02-08T09:50:14;4.20;51.40
64817;DHT22;53289;45.602;11.904;2023-02-08T09:55:23;4.60;50.40
64817;DHT22;53289;45.602;11.904;2023-02-08T09:57:52;4.80;48.00
64817;DHT22;53289;45.602;11.904;2023-02-08T10:00:41;4.80;48.40
64817;DHT22;53289;45.602;11.904;2023-02-08T10:03:32;5.00;48.80
64817;DHT22;53289;45.602;11.904;2023-02-08T10:05:59;5.20;47.20
64817;DHT22;53289;45.602;11.904;2023-02-08T10:08:26;5.40;47.00
64817;DHT22;53289;45.602;11.904;2023-02-08T10:17:23;5.60;47.50
64817;DHT22;53289;45.602;11.904;2023-02-08T10:36:15;6.00;44.60
64817;DHT22;53289;45.602;11.904;2023-02-08T10:38:43;6.00;44.00
64817;DHT22;53289;45.602;11.904;2023-02-08T10:41:14;5.90;44.40
64817;DHT22;53289;45.602;11.904;2023-02-08T10:44:03;5.80;44.70
64817;DHT22;53289;45.602;11.904;2023-02-08T10:46:36;5.90;44.90
64817;DHT22;53289;45.602;11.904;2023-02-08T10:51:46;6.50;43.50
64817;DHT22;53289;45.602;11.904;2023-02-08T10:54:14;6.80;41.50
64817;DHT22;53289;45.602;11.904;2023-02-08T10:56:46;7.00;41.60
64817;DHT22;53289;45.602;11.904;2023-02-08T10:59:16;7.30;41.00
64817;DHT22;53289;45.602;11.904;2023-02-08T11:01:43;7.50;40.60
64817;DHT22;53289;45.602;11.904;2023-02-08T11:04:11;7.30;40.00
64817;DHT22;53289;45.602;11.904;2023-02-08T11:06:41;7.30;40.20
64817;DHT22;53289;45.602;11.904;2023-02-08T11:09:23;7.20;41.70
64817;DHT22;53289;45.602;11.904;2023-02-08T11:11:49;7.40;42.30
64817;DHT22;53289;45.602;11.904;2023-02-08T11:14:47;7.60;41.30
64817;DHT22;53289;45.602;11.904;2023-02-08T11:17:28;7.50;41.70
64817;DHT22;53289;45.602;11.904;2023-02-08T11:19:55;7.80;40.70
64817;DHT22;53289;45.602;11.904;2023-02-08T11:22:26;8.10;40.20
64817;DHT22;53289;45.602;11.904;2023-02-08T11:25:06;8.10;39.40
64817;DHT22;53289;45.602;11.904;2023-02-08T11:27:36;8.10;40.10
64817;DHT22;53289;45.602;11.904;2023-02-08T11:32:44;7.90;40.20
64817;DHT22;53289;45.602;11.904;2023-02-08T11:37:56;7.90;40.60
64817;DHT22;53289;45.602;11.904;2023-02-08T11:40:32;7.90;39.60
64817;DHT22;53289;45.602;11.904;2023-02-08T11:42:59;7.70;39.50
64817;DHT22;53289;45.602;11.904;2023-02-08T11:45:30;7.50;40.80
64817;DHT22;53289;45.602;11.904;2023-02-08T11:47:57;7.50;41.40
64817;DHT22;53289;45.602;11.904;2023-02-08T11:50:35;7.80;40.30
64817;DHT22;53289;45.602;11.904;2023-02-08T11:53:06;7.90;40.10
64817;DHT22;53289;45.602;11.904;2023-02-08T11:55:33;7.70;40.90
64817;DHT22;53289;45.602;11.904;2023-02-08T11:58:01;7.60;40.90
64817;DHT22;53289;45.602;11.904;2023-02-08T12:00:34;7.60;40.60
64817;DHT22;53289;45.602;11.904;2023-02-08T12:03:27;7.60;41.20
64817;DHT22;53289;45.602;11.904;2023-02-08T12:11:45;7.70;40.40
64817;DHT22;53289;45.602;11.904;2023-02-08T12:17:41;7.30;42.20
64817;DHT22;53289;45.602;11.904;2023-02-08T12:24:16;7.70;40.90
64817;DHT22;53289;45.602;11.904;2023-02-08T12:26:41;7.60;41.20
64817;DHT22;53289;45.602;11.904;2023-02-08T12:32:52;7.80;40.30
64817;DHT22;53289;45.602;11.904;2023-02-08T12:37:56;8.30;40.10
64817;DHT22;53289;45.602;11.904;2023-02-08T12:46:19;8.20;39.30
64817;DHT22;53289;45.602;11.904;2023-02-08T12:55:00;8.30;38.30
64817;DHT22;53289;45.602;11.904;2023-02-08T12:57:28;8.20;39.90
64817;DHT22;53289;45.602;11.904;2023-02-08T13:00:06;8.20;39.10
64817;DHT22;53289;45.602;11.904;2023-02-08T13:03:04;8.20;39.90
64817;DHT22;53289;45.602;11.904;2023-02-08T13:05:37;7.90;40.10
64817;DHT22;53289;45.602;11.904;2023-02-08T13:11:00;8.20;38.80
64817;DHT22;53289;45.602;11.904;2023-02-08T13:13:30;8.30;39.30
64817;DHT22;53289;45.602;11.904;2023-02-08T13:18:47;8.20;40.40
64817;DHT22;53289;45.602;11.904;2023-02-08T13:21:20;8.20;39.30
64817;DHT22;53289;45.602;11.904;2023-02-08T13:23:47;8.20;39.40
64817;DHT22;53289;45.602;11.904;2023-02-08T13:28:50;8.60;38.60
64817;DHT22;53289;45.602;11.904;2023-02-08T13:31:23;8.70;38.00
64817;DHT22;53289;45.602;11.904;2023-02-08T13:33:53;8.70;37.80
64817;DHT22;53289;45.602;11.904;2023-02-08T13:36:27;8.90;36.80
64817;DHT22;53289;45.602;11.904;2023-02-08T13:38:58;9.00;36.30
64817;DHT22;53289;45.602;11.904;2023-02-08T13:41:26;8.90;36.50
64817;DHT22;53289;45.602;11.904;2023-02-08T13:44:18;8.70;38.30
64817;DHT22;53289;45.602;11.904;2023-02-08T13:46:49;8.90;37.20
64817;DHT22;53289;45.602;11.904;2023-02-08T13:49:42;8.80;37.10
64817;DHT22;53289;45.602;11.904;2023-02-08T13:52:10;8.50;37.60
64817;DHT22;53289;45.602;11.904;2023-02-08T13:54:37;8.30;38.90
64817;DHT22;53289;45.602;11.904;2023-02-08T13:57:47;7.90;39.50
64817;DHT22;53289;45.602;11.904;2023-02-08T14:00:25;7.80;38.50
64817;DHT22;53289;45.602;11.904;2023-02-08T14:02:59;7.60;38.90
64817;DHT22;53289;45.602;11.904;2023-02-08T14:08:15;7.60;39.80
64817;DHT22;53289;45.602;11.904;2023-02-08T14:10:49;7.40;38.90
64817;DHT22;53289;45.602;11.904;2023-02-08T14:13:25;7.40;39.80
64817;DHT22;53289;45.602;11.904;2023-02-08T14:16:32;7.50;40.40
64817;DHT22;53289;45.602;11.904;2023-02-08T14:19:22;7.50;39.80
64817;DHT22;53289;45.602;11.904;2023-02-08T14:24:38;7.50;38.90
64817;DHT22;53289;45.602;11.904;2023-02-08T14:27:10;7.60;39.10
64817;DHT22;53289;45.602;11.904;2023-02-08T14:29:41;7.60;39.40
64817;DHT22;53289;45.602;11.904;2023-02-08T14:32:07;7.40;39.60
64817;DHT22;53289;45.602;11.904;2023-02-08T14:34:37;7.30;39.10
64817;DHT22;53289;45.602;11.904;2023-02-08T14:39:35;7.10;39.50
64817;DHT22;53289;45.602;11.904;2023-02-08T14:42:05;7.00;40.90
64817;DHT22;53289;45.602;11.904;2023-02-08T14:50:03;7.00;41.10
64817;DHT22;53289;45.602;11.904;2023-02-08T14:52:33;6.80;41.30
64817;DHT22;53289;45.602;11.904;2023-02-08T14:55:03;6.60;41.10
64817;DHT22;53289;45.602;11.904;2023-02-08T14:57:34;6.40;41.50
64817;DHT22;53289;45.602;11.904;2023-02-08T15:00:04;6.20;42.40
64817;DHT22;53289;45.602;11.904;2023-02-08T15:02:33;6.00;41.60
64817;DHT22;53289;45.602;11.904;2023-02-08T15:05:01;5.90;40.80
64817;DHT22;53289;45.602;11.904;2023-02-08T15:07:57;5.60;41.60
64817;DHT22;53289;45.602;11.904;2023-02-08T15:10:24;5.40;40.60
64817;DHT22;53289;45.602;11.904;2023-02-08T15:12:52;5.20;40.70
64817;DHT22;53289;45.602;11.904;2023-02-08T15:15:36;4.90;42.90
64817;DHT22;53289;45.602;11.904;2023-02-08T15:18:04;4.90;42.30
64817;DHT22;53289;45.602;11.904;2023-02-08T15:20:33;5.00;41.90
64817;DHT22;53289;45.602;11.904;2023-02-08T15:23:03;4.90;41.90
64817;DHT22;53289;45.602;11.904;2023-02-08T15:25:34;4.90;42.10
64817;DHT22;53289;45.602;11.904;2023-02-08T15:28:13;4.90;42.60
64817;DHT22;53289;45.602;11.904;2023-02-08T15:30:41;4.90;41.70
64817;DHT22;53289;45.602;11.904;2023-02-08T15:33:12;4.80;42.80
64817;DHT22;53289;45.602;11.904;2023-02-08T15:35:40;4.50;43.60
64817;DHT22;53289;45.602;11.904;2023-02-08T15:38:25;4.40;45.20
64817;DHT22;53289;45.602;11.904;2023-02-08T15:41:11;4.20;46.60
64817;DHT22;53289;45.602;11.904;2023-02-08T15:43:39;4.00;47.20
64817;DHT22;53289;45.602;11.904;2023-02-08T15:46:15;4.00;46.50
64817;DHT22;53289;45.602;11.904;2023-02-08T15:48:43;4.00;46.00
64817;DHT22;53289;45.602;11.904;2023-02-08T15:51:11;3.80;47.70
64817;DHT22;53289;45.602;11.904;2023-02-08T15:53:50;3.70;47.60
64817;DHT22;53289;45.602;11.904;2023-02-08T15:56:19;3.60;48.70
64817;DHT22;53289;45.602;11.904;2023-02-08T15:58:52;3.40;48.30
64817;DHT22;53289;45.602;11.904;2023-02-08T16:01:20;3.40;48.60
64817;DHT22;53289;45.602;11.904;2023-02-08T16:03:52;3.30;48.00
64817;DHT22;53289;45.602;11.904;2023-02-08T16:06:26;3.10;48.70
64817;DHT22;53289;45.602;11.904;2023-02-08T16:08:54;3.20;47.30
64817;DHT22;53289;45.602;11.904;2023-02-08T16:11:24;3.10;49.00
64817;DHT22;53289;45.602;11.904;2023-02-08T16:13:52;3.10;48.80
64817;DHT22;53289;45.602;11.904;2023-02-08T16:16:37;2.90;49.40
64817;DHT22;53289;45.602;11.904;2023-02-08T16:19:04;2.80;50.00
64817;DHT22;53289;45.602;11.904;2023-02-08T16:21:40;2.70;50.20
64817;DHT22;53289;45.602;11.904;2023-02-08T16:24:23;2.60;50.60
64817;DHT22;53289;45.602;11.904;2023-02-08T16:29:27;2.40;52.10
64817;DHT22;53289;45.602;11.904;2023-02-08T16:34:26;2.10;52.00
64817;DHT22;53289;45.602;11.904;2023-02-08T16:36:53;2.10;51.70
64817;DHT22;53289;45.602;11.904;2023-02-08T16:39:33;2.00;52.90
64817;DHT22;53289;45.602;11.904;2023-02-08T16:42:05;1.90;53.00
64817;DHT22;53289;45.602;11.904;2023-02-08T16:44:34;1.90;53.10
64817;DHT22;53289;45.602;11.904;2023-02-08T16:47:22;1.80;52.90
64817;DHT22;53289;45.602;11.904;2023-02-08T16:49:50;1.80;53.70
64817;DHT22;53289;45.602;11.904;2023-02-08T16:52:16;1.70;52.20
64817;DHT22;53289;45.602;11.904;2023-02-08T16:54:42;1.70;52.70
64817;DHT22;53289;45.602;11.904;2023-02-08T16:57:08;1.80;51.90
64817;DHT22;53289;45.602;11.904;2023-02-08T16:59:34;1.80;52.40
64817;DHT22;53289;45.602;11.904;2023-02-08T17:02:00;1.90;51.80
64817;DHT22;53289;45.602;11.904;2023-02-08T17:04:26;1.80;51.60
64817;DHT22;53289;45.602;11.904;2023-02-08T17:06:52;1.80;51.30
64817;DHT22;53289;45.602;11.904;2023-02-08T17:09:18;1.80;52.20
64817;DHT22;53289;45.602;11.904;2023-02-08T17:11:44;1.70;51.90
64817;DHT22;53289;45.602;11.904;2023-02-08T17:14:10;1.70;52.00
64817;DHT22;53289;45.602;11.904;2023-02-08T17:16:37;1.60;52.10
64817;DHT22;53289;45.602;11.904;2023-02-08T17:19:05;1.60;52.90
64817;DHT22;53289;45.602;11.904;2023-02-08T17:21:31;1.60;52.30
64817;DHT22;53289;45.602;11.904;2023-02-08T17:23:57;1.50;52.70
64817;DHT22;53289;45.602;11.904;2023-02-08T17:26:35;1.40;53.00
64817;DHT22;53289;45.602;11.904;2023-02-08T17:29:03;1.40;53.50
64817;DHT22;53289;45.602;11.904;2023-02-08T17:31:29;1.40;53.30
64817;DHT22;53289;45.602;11.904;2023-02-08T17:33:55;1.40;53.80
64817;DHT22;53289;45.602;11.904;2023-02-08T17:36:33;1.30;53.10
64817;DHT22;53289;45.602;11.904;2023-02-08T17:39:00;1.30;53.30
64817;DHT22;53289;45.602;11.904;2023-02-08T17:41:26;1.40;53.50
64817;DHT22;53289;45.602;11.904;2023-02-08T17:43:54;1.40;52.80
64817;DHT22;53289;45.602;11.904;2023-02-08T17:46:24;1.40;53.30
64817;DHT22;53289;45.602;11.904;2023-02-08T17:48:50;1.30;53.60
64817;DHT22;53289;45.602;11.904;2023-02-08T17:51:18;1.30;52.70
64817;DHT22;53289;45.602;11.904;2023-02-08T17:53:45;1.30;53.20
64817;DHT22;53289;45.602;11.904;2023-02-08T17:56:24;1.30;52.80